createdAt,value
2023-03-22T00:02:28.199Z,22.45
2023-03-22T00:04:58.024Z,22.49
2023-03-22T00:07:27.859Z,22.46
2023-03-22T00:09:57.709Z,22.46
2023-03-22T00:12:27.528Z,22.42
2023-03-22T00:14:57.375Z,22.38
2023-03-22T00:17:28.668Z,22.29
2023-03-22T00:19:59.555Z,22.29
2023-03-22T00:22:29.362Z,22.19
2023-03-22T00:24:59.068Z,22.19
2023-03-22T00:27:28.685Z,22.16
2023-03-22T00:29:59.451Z,22.18
2023-03-22T00:32:29.327Z,22.16
2023-03-22T00:34:59.081Z,22.19
2023-03-22T00:37:36.479Z,22.22
2023-03-22T00:40:10.041Z,22.22
2023-03-22T00:42:43.323Z,22.22
2023-03-22T00:45:14.402Z,22.19
2023-03-22T00:47:44.231Z,22.11
2023-03-22T00:50:14.062Z,22.02
2023-03-22T00:52:43.743Z,21.97
2023-03-22T00:55:13.787Z,21.91
2023-03-22T00:57:43.738Z,21.94
2023-03-22T01:00:17.298Z,21.94
2023-03-22T01:02:48.320Z,21.93
2023-03-22T01:05:23.088Z,21.93
2023-03-22T01:07:56.460Z,21.88
2023-03-22T01:10:26.548Z,21.88
2023-03-22T01:12:57.979Z,21.88
2023-03-22T01:15:27.909Z,21.85
2023-03-22T01:17:58.361Z,21.81
2023-03-22T01:20:29.692Z,21.80
2023-03-22T01:22:59.603Z,21.74
2023-03-22T01:25:29.674Z,21.71
2023-03-22T01:27:59.577Z,21.71
2023-03-22T01:30:29.414Z,21.70
2023-03-22T01:32:59.199Z,21.70
2023-03-22T01:35:29.029Z,21.65
2023-03-22T01:37:59.105Z,21.60
2023-03-22T01:40:29.334Z,21.57
2023-03-22T01:42:59.528Z,21.51
2023-03-22T01:45:40.139Z,21.53
2023-03-22T01:48:13.891Z,21.51
2023-03-22T01:50:47.670Z,21.57
2023-03-22T01:53:20.402Z,21.54
2023-03-22T01:55:51.067Z,21.50
2023-03-22T01:58:27.593Z,21.50
2023-03-22T02:01:01.818Z,21.44
2023-03-22T02:04:17.468Z,21.44
2023-03-22T02:06:48.793Z,21.42
2023-03-22T02:09:23.165Z,21.40
2023-03-22T03:08:02.433Z,20.99
2023-03-22T03:10:34.880Z,20.85
2023-03-22T03:13:05.138Z,20.84
2023-03-22T03:15:35.002Z,20.84
2023-03-22T03:18:27.889Z,20.94
2023-03-22T03:21:10.914Z,20.96
2023-03-22T03:24:02.194Z,20.88
2023-03-22T03:27:04.113Z,20.86
2023-03-22T03:30:00.780Z,20.85
2023-03-22T03:32:38.805Z,20.82
2023-03-22T03:35:28.857Z,20.76
2023-03-22T03:38:19.759Z,20.82
2023-03-22T03:40:55.738Z,20.76
2023-03-22T03:43:27.756Z,20.72
2023-03-22T03:45:59.280Z,20.71
2023-03-22T03:48:34.716Z,20.72
2023-03-22T03:51:05.554Z,20.75
2023-03-22T03:53:35.641Z,20.75
2023-03-22T03:56:05.962Z,20.76
2023-03-22T03:58:40.904Z,20.71
2023-03-22T04:01:11.565Z,20.61
2023-03-22T04:03:56.500Z,20.65
2023-03-22T04:06:49.205Z,20.68
2023-03-22T04:09:24.907Z,20.67
2023-03-22T04:11:59.814Z,20.65
2023-03-22T04:14:30.622Z,20.61
2023-03-22T04:17:05.843Z,20.64
2023-03-22T04:19:35.738Z,20.64
2023-03-22T04:22:05.824Z,20.63
2023-03-22T04:24:39.048Z,20.59
2023-03-22T04:27:10.981Z,20.61
2023-03-22T04:30:24.077Z,20.63
2023-03-22T04:33:12.804Z,20.55
2023-03-22T04:36:17.123Z,20.48
2023-03-22T04:39:02.694Z,20.44
2023-03-22T04:41:32.936Z,20.43
2023-03-22T04:44:06.021Z,20.40
2023-03-22T04:46:39.409Z,20.43
2023-03-22T04:49:10.105Z,20.43
2023-03-22T04:51:42.511Z,20.33
2023-03-22T04:54:32.629Z,20.37
2023-03-22T04:57:02.535Z,20.38
2023-03-22T04:59:38.620Z,20.37
2023-03-22T05:02:08.504Z,20.38
2023-03-22T05:04:44.547Z,20.33
2023-03-22T05:07:52.408Z,20.34
2023-03-22T05:10:22.790Z,20.35
2023-03-22T05:12:52.732Z,20.35
2023-03-22T05:15:35.018Z,20.37
2023-03-22T05:18:06.889Z,20.37
2023-03-22T05:20:38.060Z,20.33
2023-03-22T05:23:20.368Z,20.28
2023-03-22T05:25:55.450Z,20.24
2023-03-22T05:28:28.406Z,20.20
2023-03-22T05:31:09.681Z,20.18
2023-03-22T05:33:55.479Z,20.20
2023-03-22T05:36:30.760Z,20.17
2023-03-22T05:39:35.838Z,20.12
2023-03-22T05:42:05.945Z,20.07
2023-03-22T05:44:38.677Z,19.98
2023-03-22T05:47:13.045Z,20.01
2023-03-22T05:50:14.826Z,20.06
2023-03-22T05:52:45.872Z,20.07
2023-03-22T05:55:48.950Z,20.01
2023-03-22T05:58:20.978Z,20.06
2023-03-22T06:00:54.242Z,20.03
2023-03-22T06:03:25.279Z,19.92
2023-03-22T06:06:01.283Z,19.94
2023-03-22T06:08:46.942Z,19.97
2023-03-22T06:11:18.006Z,19.94
2023-03-22T06:13:48.060Z,19.89
2023-03-22T06:16:19.761Z,19.83
2023-03-22T06:18:51.156Z,19.79
2023-03-22T06:21:21.157Z,19.83
2023-03-22T06:23:51.040Z,19.82
2023-03-22T06:26:21.614Z,19.82
2023-03-22T06:28:52.258Z,19.77
2023-03-22T06:31:22.457Z,19.77
2023-03-22T06:33:59.076Z,19.76
2023-03-22T06:36:35.482Z,19.76
2023-03-22T06:39:12.748Z,19.79
2023-03-22T06:41:46.382Z,19.79
2023-03-22T06:44:16.982Z,19.75
2023-03-22T06:46:52.992Z,19.72
2023-03-22T06:49:45.622Z,19.70
2023-03-22T06:52:28.441Z,19.69
2023-03-22T06:54:59.592Z,19.66
2023-03-22T06:57:29.713Z,19.67
2023-03-22T06:59:59.580Z,19.66
2023-03-22T07:02:29.301Z,19.67
2023-03-22T07:05:19.098Z,19.69
2023-03-22T07:07:49.295Z,19.65
2023-03-22T07:10:19.923Z,19.65
2023-03-22T07:12:49.800Z,19.65
2023-03-22T07:15:25.288Z,19.61
2023-03-22T07:18:04.789Z,19.56
2023-03-22T07:20:39.768Z,19.55
2023-03-22T07:23:11.994Z,19.51
2023-03-22T07:25:52.778Z,19.48
2023-03-22T07:28:30.172Z,19.46
2023-03-22T07:31:09.413Z,19.46
2023-03-22T07:33:49.502Z,19.49
2023-03-22T07:36:24.873Z,19.48
2023-03-22T07:38:55.636Z,19.42
2023-03-22T07:41:36.038Z,19.38
2023-03-22T07:44:31.978Z,19.42
2023-03-22T07:47:40.389Z,19.45
2023-03-22T07:50:34.030Z,19.39
2023-03-22T07:53:07.398Z,19.39
2023-03-22T07:55:38.466Z,19.35
2023-03-22T07:58:08.940Z,19.36
2023-03-22T08:00:40.166Z,19.34
2023-03-22T08:03:28.773Z,19.34
2023-03-22T08:06:10.212Z,19.34
2023-03-22T08:08:40.864Z,19.31
2023-03-22T08:11:10.742Z,19.28
2023-03-22T08:13:40.956Z,19.29
2023-03-22T08:16:13.073Z,19.27
2023-03-22T08:18:44.418Z,19.29
2023-03-22T08:21:16.200Z,19.31
2023-03-22T08:23:48.810Z,19.29
2023-03-22T08:26:50.773Z,19.25
2023-03-22T08:29:35.106Z,19.25
2023-03-22T08:32:05.747Z,19.24
2023-03-22T08:34:39.615Z,19.19
2023-03-22T08:37:10.887Z,19.14
2023-03-22T08:39:42.342Z,19.14
2023-03-22T08:42:33.367Z,19.15
2023-03-22T08:45:05.222Z,19.19
2023-03-22T08:47:37.916Z,19.18
2023-03-22T08:50:11.641Z,19.12
2023-03-22T08:52:49.503Z,19.08
2023-03-22T08:55:41.921Z,19.07
2023-03-22T08:58:13.477Z,19.01
2023-03-22T09:01:08.828Z,19.01
2023-03-22T09:03:52.881Z,18.94
2023-03-22T09:06:22.854Z,18.84
2023-03-22T09:08:53.674Z,18.88
2023-03-22T09:11:25.935Z,18.88
2023-03-22T09:13:56.044Z,18.86
2023-03-22T09:16:25.889Z,18.83
2023-03-22T09:18:55.633Z,18.84
2023-03-22T09:21:25.815Z,18.87
2023-03-22T09:24:07.768Z,18.88
2023-03-22T09:26:47.857Z,18.88
2023-03-22T09:29:20.682Z,18.74
2023-03-22T09:31:50.861Z,18.76
2023-03-22T09:34:25.038Z,18.76
2023-03-22T09:36:58.611Z,18.78
2023-03-22T09:39:33.665Z,18.77
2023-03-22T09:42:35.076Z,18.83
2023-03-22T09:45:13.975Z,18.80
2023-03-22T09:47:52.305Z,18.78
2023-03-22T09:50:29.487Z,18.83
2023-03-22T09:53:02.328Z,18.91
2023-03-22T09:56:00.628Z,18.96
2023-03-22T09:58:52.061Z,19.00
2023-03-22T10:01:39.962Z,19.06
2023-03-22T10:04:41.617Z,19.10
2023-03-22T10:07:34.915Z,19.12
2023-03-22T10:10:07.767Z,19.17
2023-03-22T10:12:43.020Z,19.25
2023-03-22T10:15:21.071Z,19.34
2023-03-22T10:17:54.962Z,19.51
2023-03-22T10:20:43.600Z,19.56
2023-03-22T10:23:19.359Z,19.66
2023-03-22T10:25:49.535Z,19.94
2023-03-22T10:28:30.678Z,20.41
2023-03-22T10:31:00.858Z,20.79
2023-03-22T10:33:37.450Z,21.44
2023-03-22T10:36:13.901Z,22.06
2023-03-22T10:38:57.545Z,22.45
2023-03-22T10:41:29.941Z,22.64
2023-03-22T10:44:03.630Z,22.99
2023-03-22T10:46:40.175Z,23.30
2023-03-22T10:49:23.976Z,23.45
2023-03-22T10:52:03.463Z,23.71
2023-03-22T10:54:34.096Z,23.89
2023-03-22T10:57:04.080Z,24.03
2023-03-22T10:59:53.801Z,24.43
2023-03-22T11:02:33.105Z,24.70
2023-03-22T11:05:07.311Z,24.85
2023-03-22T11:07:39.920Z,25.08
2023-03-22T11:10:12.510Z,25.16
2023-03-22T11:13:12.254Z,25.46
2023-03-22T11:15:50.538Z,25.66
2023-03-22T11:18:20.753Z,26.02
2023-03-22T11:21:06.110Z,25.98
2023-03-22T11:23:39.650Z,25.62
2023-03-22T11:26:15.595Z,25.77
2023-03-22T11:28:52.016Z,25.71
2023-03-22T11:31:22.994Z,25.81
2023-03-22T11:34:00.002Z,26.21
2023-03-22T11:36:30.495Z,26.28
2023-03-22T11:39:08.992Z,26.59
2023-03-22T11:41:41.187Z,26.93
2023-03-22T11:44:19.230Z,27.07
2023-03-22T11:47:02.855Z,27.80
2023-03-22T11:49:41.806Z,27.96
2023-03-22T11:52:17.677Z,28.13
2023-03-22T11:54:48.905Z,28.61
2023-03-22T11:57:24.365Z,29.03
2023-03-22T12:00:00.255Z,29.08
2023-03-22T12:02:37.246Z,28.94
2023-03-22T12:05:19.691Z,29.46
2023-03-22T12:07:55.692Z,29.73
2023-03-22T12:10:32.514Z,29.26
2023-03-22T12:13:17.491Z,29.52
2023-03-22T12:15:54.152Z,29.77
2023-03-22T12:18:30.048Z,30.44
2023-03-22T12:21:02.012Z,30.86
2023-03-22T12:23:37.662Z,29.90
2023-03-22T12:26:19.557Z,29.90
2023-03-22T12:29:01.468Z,29.90
2023-03-22T12:31:43.850Z,30.13
2023-03-22T12:34:23.072Z,29.84
2023-03-22T12:36:57.268Z,30.12
2023-03-22T12:39:42.008Z,30.54
2023-03-22T12:42:34.720Z,30.91
2023-03-22T12:45:12.400Z,30.61
2023-03-22T12:47:52.750Z,30.89
2023-03-22T12:50:41.526Z,30.85
2023-03-22T12:53:21.237Z,31.02
2023-03-22T12:55:51.822Z,30.89
2023-03-22T12:58:24.725Z,31.13
2023-03-22T13:01:12.988Z,31.30
2023-03-22T13:03:53.268Z,32.40
2023-03-22T13:06:46.702Z,32.87
2023-03-22T13:09:18.630Z,32.31
2023-03-22T13:12:08.199Z,32.35
2023-03-22T13:15:01.455Z,32.99
2023-03-22T13:17:32.196Z,32.43
2023-03-22T13:20:26.836Z,33.04
2023-03-22T13:22:56.610Z,33.85
2023-03-22T13:25:30.809Z,33.21
2023-03-22T13:28:04.960Z,32.73
2023-03-22T13:30:48.403Z,32.95
2023-03-22T13:33:26.132Z,33.74
2023-03-22T13:36:00.022Z,33.13
2023-03-22T13:38:35.274Z,33.02
2023-03-22T13:41:29.171Z,33.10
2023-03-22T13:44:06.899Z,33.78
2023-03-22T13:46:39.804Z,34.31
2023-03-22T13:49:45.894Z,34.10
2023-03-22T13:52:37.963Z,34.91
2023-03-22T13:55:38.039Z,35.35
2023-03-22T13:58:12.050Z,35.85
2023-03-22T14:00:50.145Z,36.27
2023-03-22T14:03:29.166Z,37.12
2023-03-22T14:06:12.369Z,37.30
2023-03-22T14:08:45.371Z,37.65
2023-03-22T14:11:52.290Z,37.81
2023-03-22T14:14:26.013Z,37.56
2023-03-22T14:17:02.448Z,37.80
2023-03-22T14:19:35.920Z,38.17
